Flight Track Log - Related Links

Times and Time Zones

All times are in EDT time to prevent confusion due to time zone crossing. See the ASQ3850 flight status page for this flight to view local times or setup timezone preferences in your user account.


Time Position Orientation Groundspeed Altitude Reporting Facility
EDT Latitude Longitude Course Direction KTS MPH feet Rate Location/Type
Thu 04:00:53 PM 35.1886 -80.9358 30° Northeast 165 190 1,300  Level Atlanta Center
Thu 04:02:12 PM 35.1211 -80.8978 155° Southeast 249 287 3,200 1,708 Climbing Atlanta Center
Thu 04:03:10 PM 35.0919 -80.8278 117° Southeast 276 318 5,200 2,121 Climbing Atlanta Center
Thu 04:04:00 PM 35.1456 -80.6030 29° Northeast  Level FlightAware Approximate
Thu 04:04:08 PM 35.1022 -80.7383 82° East 273 314 7,300  Level Atlanta Center
Thu 04:05:00 PM 35.2261 -80.5481 30° Northeast  Level FlightAware Approximate
Thu 04:05:09 PM 35.1269 -80.6486 71° East 287 330 9,300  Level Atlanta Center
Thu 04:06:00 PM 35.3057 -80.4912 30° Northeast  Level FlightAware Approximate
Thu 04:06:10 PM 35.1767 -80.5653 54° Northeast 310 357 10,900  Level Atlanta Center
Thu 04:07:10 PM 35.2267 -80.4869 52° Northeast 315 362 11,800 1,029 Climbing Atlanta Center
Thu 04:09:05 PM 35.3458 -80.2928 53° Northeast 361 415 13,900 1,057 Climbing Washington Center
Thu 04:10:06 PM 35.4106 -80.1869 53° Northeast 377 434 14,900 1,033 Climbing Washington Center
Thu 04:11:07 PM 35.4528 -80.0644 67° East 383 441 16,000 1,033 Climbing Washington Center
Thu 04:12:08 PM 35.4844 -79.9386 73° East 384 442 17,000 915 Climbing Washington Center
Thu 04:13:05 PM 35.5158 -79.8206 72° East 389 448 17,800 974 Climbing Washington Center
Thu 04:14:05 PM 35.5500 -79.6767 74° East 395 455 18,900 1,033 Climbing Washington Center
Thu 04:15:07 PM 35.5833 -79.5558 71° East 400 460 19,900 984 Climbing Washington Center
Thu 04:16:07 PM 35.6144 -79.4372 72° East 400 460 20,900 1,068 Climbing Washington Center
Thu 04:17:05 PM 35.6714 -79.2867 65° Northeast 400 460 22,000 1,119 Climbing Washington Center
Thu 04:18:05 PM 35.7411 -79.1825 50° Northeast 400 460 23,100 1,041 Climbing Washington Center
Thu 04:19:06 PM 35.8350 -79.1122 31° Northeast 382 440 24,100 1,082 Climbing Washington Center
Thu 04:20:07 PM 35.9289 -79.0447 30° Northeast 382 440 25,300 1,180 Climbing Washington Center
Thu 04:21:08 PM 36.0228 -78.9769 30° Northeast 382 440 26,500 1,220 Climbing Washington Center
Thu 04:22:05 PM 36.1122 -78.9061 33° Northeast 382 440 27,700 1,179 Climbing Washington Center
Thu 04:23:05 PM 36.2039 -78.8406 30° Northeast 382 440 28,800 942 Climbing Washington Center
Thu 04:24:06 PM 36.2806 -78.7819 32° Northeast 376 433 29,600 942 Climbing Washington Center
Thu 04:25:06 PM 36.3697 -78.7183 30° Northeast 371 427 30,700 1,091 Climbing Washington Center
Thu 04:26:07 PM 36.4592 -78.6497 32° Northeast 371 427 31,800 639 Climbing Washington Center
Thu 04:27:08 PM 36.5486 -78.5808 32° Northeast 371 427 32,000 101 Climbing Washington Center
Thu 04:28:06 PM 36.6486 -78.5044 31° Northeast 383 441 32,000  Level Washington Center
Thu 04:29:07 PM 36.7506 -78.4253 32° Northeast 407 468 32,000  Level Washington Center
Thu 04:30:05 PM 36.8547 -78.3486 30° Northeast 425 489 32,000  Level Washington Center
Thu 04:31:06 PM 36.9586 -78.2667 32° Northeast 430 495 32,000  Level Washington Center
Thu 04:32:06 PM 37.0731 -78.1819 31° Northeast 435 501 32,000  Level Washington Center
Thu 04:33:07 PM 37.1603 -78.1144 32° Northeast 430 495 32,000  Level Washington Center
Thu 04:34:05 PM 37.2642 -78.0344 31° Northeast 430 495 32,000 203 Level Washington Center
Thu 04:35:05 PM 37.3636 -77.9567 32° Northeast 430 495 32,400 496 Climbing Washington Center
Thu 04:36:06 PM 37.4675 -77.8761 32° Northeast 430 495 33,000 295 Climbing Washington Center
Thu 04:37:07 PM 37.5711 -77.7928 33° Northeast 430 495 33,000  Level Washington Center
Thu 04:38:05 PM 37.6708 -77.7011 36° Northeast 436 502 33,000  Level Washington Center
Thu 04:39:05 PM 37.7706 -77.6094 36° Northeast 441 507 33,000  Level Washington Center
Thu 04:40:07 PM 37.8719 -77.5175 36° Northeast 441 507 33,000  Level Washington Center
Thu 04:41:05 PM 37.9714 -77.4278 35° Northeast 441 507 33,000  Level Washington Center
Thu 04:42:05 PM 38.0689 -77.3378 36° Northeast 435 501 33,000  Level Washington Center
Thu 04:43:06 PM 38.1661 -77.2475 36° Northeast 430 495 33,000  Level Washington Center
Thu 04:44:07 PM 38.2653 -77.1519 37° Northeast 435 501 33,000  Level Washington Center
Thu 04:45:05 PM 38.3622 -77.0667 35° Northeast 435 501 33,000  Level Washington Center
Thu 04:46:05 PM 38.4614 -76.9731 36° Northeast 430 495 33,000  Level Washington Center
Thu 04:47:05 PM 38.5583 -76.8819 36° Northeast 435 501 33,000  Level Washington Center
Thu 04:48:06 PM 38.6550 -76.7906 36° Northeast 435 501 33,000  Level Washington Center
Thu 04:49:07 PM 38.7500 -76.6911 39° Northeast 435 501 33,000  Level Washington Center
Thu 04:50:07 PM 38.8425 -76.5858 42° Northeast 435 501 33,000  Level Washington Center
Thu 04:51:08 PM 38.9331 -76.4831 41° Northeast 435 501 33,000 -254 Level Washington Center
Thu 04:52:05 PM 39.0233 -76.3797 42° Northeast 435 501 32,500 -1,231 Descending Washington Center
Thu 04:53:05 PM 39.1094 -76.2736 44° Northeast 430 495 30,600 -2,331 Descending Washington Center
Thu 04:54:06 PM 39.1975 -76.1728 42° Northeast 425 489 27,800 -1,835 Descending Washington Center
Thu 04:55:06 PM 39.2856 -76.0742 41° Northeast 425 489 26,900 -393 Descending Washington Center
Thu 04:56:08 PM 39.3669 -75.9781 42° Northeast 410 472 27,000 50 Climbing Washington Center
Thu 04:57:06 PM 39.4528 -75.8792 42° Northeast 405 466 27,000 -151 Level Washington Center
Thu 04:58:07 PM 39.5383 -75.7800 42° Northeast 405 466 26,700 -1,261 Descending Washington Center
Thu 04:59:05 PM 39.6281 -75.6697 43° Northeast 399 459 24,500 -2,390 Descending Washington Center
Thu 05:00:05 PM 39.7072 -75.5753 43° Northeast 394 453 22,000 -2,213 Descending Washington Center
Thu 05:01:07 PM 39.7864 -75.4781 43° Northeast 389 448 20,000 -1,918 Descending Washington Center
Thu 05:02:07 PM 39.8633 -75.3861 43° Northeast 389 448 18,100 -1,983 Descending Washington Center
Thu 05:03:05 PM 39.9381 -75.2992 42° Northeast 372 428 16,100 -1,983 Descending Washington Center
Thu 05:04:05 PM 40.0067 -75.2122 44° Northeast 361 415 14,200 -1,654 Descending Washington Center
Thu 05:06:10 PM 40.1500 -75.0333 44° Northeast 336 387 11,000 -1,427 Descending New York TRACON
Thu 05:07:10 PM 40.2167 -74.9667 37° Northeast 302 348 9,800 -1,400 Descending New York TRACON
Thu 05:08:10 PM 40.2667 -74.8833 52° Northeast 287 330 8,200 -1,100 Descending New York TRACON
Thu 05:09:10 PM 40.3167 -74.8167 45° Northeast 276 318 7,600 -800 Descending New York TRACON
Thu 05:10:10 PM 40.3667 -74.7333 52° Northeast 277 319 6,600 -800 Descending New York TRACON
Thu 05:11:10 PM 40.4333 -74.6667 37° Northeast 277 319 6,000 -300 Descending New York TRACON
Thu 05:12:10 PM 40.5000 -74.6500 11° North 259 298 6,000  Level New York TRACON
Thu 05:13:10 PM 40.5667 -74.6333 11° North 261 300 6,000  Level New York TRACON
Thu 05:14:10 PM 40.6500 -74.6167 North 260 299 6,000  Level New York TRACON
Thu 05:15:10 PM 40.7167 -74.5833 21° North 262 302 6,000  Level New York TRACON
Thu 05:16:10 PM 40.7833 -74.5667 11° North 268 308 6,000  Level New York TRACON
Thu 05:17:10 PM 40.8500 -74.5500 11° North 265 305 6,000 -50 Level New York TRACON
Thu 05:18:10 PM 40.9333 -74.5333 North 266 306 5,900 -450 Descending New York TRACON
Thu 05:19:10 PM 41.0000 -74.5000 21° North 244 281 5,100 -450 Descending New York TRACON
Thu 05:20:10 PM 41.0167 -74.4167 75° East 240 276 5,000 -50 Descending New York TRACON
Thu 05:21:10 PM 40.9833 -74.3333 118° Southeast 243 280 5,000  Level New York TRACON
Thu 05:22:10 PM 40.9333 -74.2667 135° Southeast 245 282 5,000 -50 Level New York TRACON
Thu 05:23:10 PM 40.9000 -74.1833 118° Southeast 246 283 4,900 -667 Descending New York TRACON
Thu 05:24:16 PM 40.8667 -74.1000 118° Southeast 238 274 3,600 -1,050 Descending New York TRACON
Thu 05:25:10 PM 40.8167 -74.0833 166° South 208 239 2,800 -889 Descending New York TRACON

Login

Don't have an account? Register now (free) for customized features, flight alerts, and more!